createdAt,value
2018-12-26T00:01:21.719Z,3.10
2018-12-26T00:04:02.560Z,3.10
2018-12-26T00:06:43.367Z,3.00
2018-12-26T00:09:24.290Z,3.00
2018-12-26T00:12:04.957Z,2.90
2018-12-26T00:14:45.474Z,2.80
2018-12-26T00:17:26.720Z,2.80
2018-12-26T00:20:07.669Z,2.70
2018-12-26T00:22:48.429Z,2.60
2018-12-26T00:25:28.865Z,2.60
2018-12-26T00:28:09.599Z,2.60
2018-12-26T00:30:50.476Z,2.50
2018-12-26T00:33:30.852Z,2.50
2018-12-26T00:36:11.834Z,2.50
2018-12-26T00:38:52.732Z,2.40
2018-12-26T00:41:33.886Z,2.40
2018-12-26T00:44:14.700Z,2.40
2018-12-26T00:46:55.622Z,2.40
2018-12-26T00:49:36.177Z,2.30
2018-12-26T00:52:17.422Z,2.40
2018-12-26T00:54:58.574Z,2.50
2018-12-26T00:57:39.309Z,2.60
2018-12-26T01:00:20.516Z,2.70
2018-12-26T01:03:01.738Z,2.80
2018-12-26T01:05:42.915Z,2.80
2018-12-26T01:08:24.189Z,2.80
2018-12-26T01:11:04.713Z,2.80
2018-12-26T01:13:45.185Z,2.70
2018-12-26T01:16:26.318Z,2.80
2018-12-26T01:19:07.394Z,2.90
2018-12-26T01:21:48.154Z,2.90
2018-12-26T01:24:28.779Z,2.90
2018-12-26T01:27:09.938Z,2.90
2018-12-26T01:29:50.433Z,2.80
2018-12-26T01:32:31.403Z,2.80
2018-12-26T01:35:12.507Z,2.80
2018-12-26T01:37:53.110Z,2.80
2018-12-26T01:40:33.935Z,2.70
2018-12-26T01:43:14.748Z,2.80
2018-12-26T01:45:54.986Z,2.80
2018-12-26T01:48:36.350Z,2.80
2018-12-26T01:51:16.941Z,2.80
2018-12-26T01:53:57.442Z,2.80
2018-12-26T01:56:38.330Z,2.70
2018-12-26T01:59:18.838Z,2.80
2018-12-26T02:01:59.786Z,2.80
2018-12-26T02:04:40.863Z,2.70
2018-12-26T02:07:21.273Z,2.80
2018-12-26T02:10:01.906Z,2.80
2018-12-26T02:12:42.909Z,2.70
2018-12-26T02:15:23.620Z,2.70
2018-12-26T02:18:04.215Z,2.70
2018-12-26T02:20:45.034Z,2.60
2018-12-26T02:23:25.669Z,2.50
2018-12-26T02:26:06.858Z,2.50
2018-12-26T02:28:47.495Z,2.60
2018-12-26T02:31:28.316Z,2.70
2018-12-26T02:34:07.002Z,2.70
2018-12-26T02:36:54.786Z,2.70
2018-12-26T02:39:42.875Z,2.70
2018-12-26T02:42:30.672Z,2.60
2018-12-26T02:45:18.771Z,2.70
2018-12-26T02:48:06.524Z,2.70
2018-12-26T02:50:54.353Z,2.70
2018-12-26T02:53:42.149Z,2.60
2018-12-26T02:56:23.496Z,2.70
2018-12-26T02:59:04.137Z,2.70
2018-12-26T03:01:44.311Z,2.60
2018-12-26T03:04:25.358Z,2.60
2018-12-26T03:07:06.472Z,2.60
2018-12-26T03:09:47.101Z,2.60
2018-12-26T03:12:28.003Z,2.60
2018-12-26T03:15:08.903Z,2.60
2018-12-26T03:17:49.429Z,2.50
2018-12-26T03:20:30.219Z,2.60
2018-12-26T03:23:11.269Z,2.50
2018-12-26T03:25:51.891Z,2.50
2018-12-26T03:28:33.134Z,2.50
2018-12-26T03:31:14.304Z,2.50
2018-12-26T03:33:54.865Z,2.60
2018-12-26T03:36:36.031Z,2.60
2018-12-26T03:39:16.777Z,2.50
2018-12-26T03:41:57.564Z,2.50
2018-12-26T03:44:38.142Z,2.50
2018-12-26T03:47:19.118Z,2.50
2018-12-26T03:49:59.601Z,2.60
2018-12-26T03:52:40.216Z,2.60
2018-12-26T03:55:21.182Z,2.50
2018-12-26T03:58:01.575Z,2.50
2018-12-26T04:00:42.683Z,2.40
2018-12-26T04:03:23.394Z,2.50
2018-12-26T04:06:04.100Z,2.60
2018-12-26T04:08:45.164Z,2.70
2018-12-26T04:11:25.961Z,2.80
2018-12-26T04:14:07.041Z,2.70
2018-12-26T04:16:47.614Z,2.90
2018-12-26T04:19:28.294Z,2.80
2018-12-26T04:22:09.426Z,2.90
2018-12-26T04:24:50.366Z,2.80
2018-12-26T04:27:31.328Z,2.80
2018-12-26T04:30:12.015Z,2.70
2018-12-26T04:32:53.026Z,2.60
2018-12-26T04:35:34.255Z,2.70
2018-12-26T04:38:14.994Z,2.70
2018-12-26T04:40:55.774Z,2.70
2018-12-26T04:43:36.910Z,2.70
2018-12-26T04:46:17.493Z,2.80
2018-12-26T04:48:58.134Z,2.90
2018-12-26T04:51:38.927Z,2.90
2018-12-26T04:54:19.644Z,2.90
2018-12-26T04:57:00.291Z,2.90
2018-12-26T04:59:41.151Z,2.80
2018-12-26T05:02:21.683Z,2.80
2018-12-26T05:05:02.314Z,2.70
2018-12-26T05:07:42.792Z,2.70
2018-12-26T05:10:23.385Z,2.80
2018-12-26T05:13:04.223Z,2.80
2018-12-26T05:15:45.535Z,3.00
2018-12-26T05:18:25.705Z,3.00
2018-12-26T05:21:06.527Z,2.90
2018-12-26T05:23:47.212Z,3.00
2018-12-26T05:26:28.181Z,3.00
2018-12-26T05:29:09.108Z,2.90
2018-12-26T05:31:50.123Z,2.90
2018-12-26T05:34:31.054Z,3.00
2018-12-26T05:37:11.669Z,3.00
2018-12-26T05:39:52.549Z,3.00
2018-12-26T05:42:31.465Z,3.00
2018-12-26T05:45:19.536Z,3.00
2018-12-26T05:48:07.288Z,3.00
2018-12-26T05:50:47.886Z,3.10
2018-12-26T05:53:28.462Z,3.10
2018-12-26T05:56:09.834Z,3.00
2018-12-26T05:58:50.478Z,3.10
2018-12-26T06:01:30.750Z,3.00
2018-12-26T06:04:11.751Z,3.10
2018-12-26T06:06:52.750Z,3.10
2018-12-26T06:09:33.595Z,3.10
2018-12-26T06:12:14.270Z,3.10
2018-12-26T06:14:54.914Z,3.10
2018-12-26T06:17:35.848Z,3.10
2018-12-26T06:20:16.791Z,3.10
2018-12-26T06:22:57.939Z,3.00
2018-12-26T06:25:38.862Z,3.00
2018-12-26T06:28:19.641Z,2.90
2018-12-26T06:31:00.485Z,2.90
2018-12-26T06:33:41.197Z,3.00
2018-12-26T06:36:22.229Z,3.00
2018-12-26T06:39:03.143Z,3.10
2018-12-26T06:41:43.893Z,3.10
2018-12-26T06:44:24.891Z,3.10
2018-12-26T06:47:05.694Z,3.00
2018-12-26T06:49:46.819Z,3.00
2018-12-26T06:52:27.527Z,3.10
2018-12-26T06:55:08.855Z,3.00
2018-12-26T06:57:49.519Z,3.10
2018-12-26T07:00:30.425Z,3.10
2018-12-26T07:03:11.542Z,3.20
2018-12-26T07:05:52.391Z,3.10
2018-12-26T07:08:33.203Z,3.10
2018-12-26T07:11:13.947Z,3.10
2018-12-26T07:13:55.046Z,3.10
2018-12-26T07:16:35.809Z,3.10
2018-12-26T07:19:16.961Z,3.20
2018-12-26T07:21:58.058Z,3.20
2018-12-26T07:24:39.053Z,3.20
2018-12-26T07:27:19.921Z,3.20
2018-12-26T07:30:00.737Z,3.20
2018-12-26T07:32:41.566Z,3.10
2018-12-26T07:35:22.391Z,3.10
2018-12-26T07:38:03.513Z,3.10
2018-12-26T07:40:44.046Z,3.10
2018-12-26T07:43:25.320Z,3.10
2018-12-26T07:46:06.111Z,3.00
2018-12-26T07:48:46.754Z,3.10
2018-12-26T07:51:27.727Z,3.10
2018-12-26T07:54:08.472Z,3.10
2018-12-26T07:56:49.013Z,3.10
2018-12-26T07:59:37.543Z,3.00
2018-12-26T08:02:12.962Z,2.90
2018-12-26T08:04:53.921Z,2.90
2018-12-26T08:07:34.751Z,2.90
2018-12-26T08:10:15.373Z,3.00
2018-12-26T08:12:55.854Z,2.90
2018-12-26T08:15:37.131Z,3.00
2018-12-26T08:18:17.759Z,2.90
2018-12-26T08:20:58.798Z,3.00
2018-12-26T08:23:37.690Z,3.00
2018-12-26T08:26:25.510Z,3.00
2018-12-26T08:29:13.521Z,3.00
2018-12-26T08:32:01.583Z,2.90
2018-12-26T08:34:49.654Z,3.00
2018-12-26T08:37:37.744Z,2.90
2018-12-26T08:40:46.447Z,2.90
2018-12-26T08:43:34.447Z,3.00
2018-12-26T08:46:22.211Z,3.00
2018-12-26T08:49:09.951Z,2.90
2018-12-26T08:51:57.730Z,2.90
2018-12-26T08:54:45.802Z,3.00
2018-12-26T08:57:26.551Z,3.10
2018-12-26T09:00:07.105Z,3.10
2018-12-26T09:02:48.119Z,3.00
2018-12-26T09:05:29.119Z,3.10
2018-12-26T09:08:09.692Z,3.00
2018-12-26T09:10:50.627Z,3.10
2018-12-26T09:13:31.203Z,3.10
2018-12-26T09:16:12.511Z,3.10
2018-12-26T09:18:53.711Z,3.00
2018-12-26T09:21:34.333Z,3.10
2018-12-26T09:24:14.884Z,3.10
2018-12-26T09:26:55.767Z,3.20
2018-12-26T09:29:36.547Z,3.20
2018-12-26T09:32:16.991Z,3.20
2018-12-26T09:34:57.714Z,3.20
2018-12-26T09:37:38.617Z,3.20
2018-12-26T09:40:19.223Z,3.20
2018-12-26T09:42:59.978Z,3.20
2018-12-26T09:45:40.850Z,3.20
2018-12-26T09:48:21.459Z,3.30
2018-12-26T09:51:02.289Z,3.30
2018-12-26T09:53:43.232Z,3.30
2018-12-26T09:56:24.150Z,3.40
2018-12-26T09:59:04.798Z,3.50
2018-12-26T10:01:45.697Z,3.50
2018-12-26T10:04:26.386Z,3.50
2018-12-26T10:07:07.435Z,3.50
2018-12-26T10:09:47.998Z,3.60
2018-12-26T10:12:28.913Z,3.60
2018-12-26T10:15:09.763Z,3.60
2018-12-26T10:17:50.815Z,3.60
2018-12-26T10:20:31.674Z,3.60
2018-12-26T10:23:12.429Z,3.60
2018-12-26T10:25:53.339Z,3.60
2018-12-26T10:28:34.190Z,3.50
2018-12-26T10:31:15.478Z,3.50
2018-12-26T10:33:56.621Z,3.50
2018-12-26T10:36:37.581Z,3.50
2018-12-26T10:39:18.301Z,3.50
2018-12-26T10:41:58.955Z,3.40
2018-12-26T10:44:39.965Z,3.50
2018-12-26T10:47:21.877Z,3.60
2018-12-26T10:50:03.001Z,3.70
2018-12-26T10:52:43.887Z,3.60
2018-12-26T10:55:24.631Z,3.70
2018-12-26T10:58:05.409Z,3.70
2018-12-26T11:00:46.284Z,3.80
2018-12-26T11:03:26.991Z,3.90
2018-12-26T11:06:08.082Z,4.00
2018-12-26T11:08:48.978Z,4.00
2018-12-26T11:11:29.947Z,3.90
2018-12-26T11:14:10.717Z,4.00
2018-12-26T11:16:52.610Z,3.90
2018-12-26T11:19:33.678Z,4.00
2018-12-26T11:22:14.259Z,4.00
2018-12-26T11:24:55.367Z,4.00
2018-12-26T11:27:35.922Z,4.00
2018-12-26T11:30:16.923Z,4.00
2018-12-26T11:32:57.571Z,4.00
2018-12-26T11:35:38.869Z,4.10
2018-12-26T11:38:19.744Z,4.10
2018-12-26T11:44:05.819Z,4.20
2018-12-26T11:46:46.976Z,4.10
2018-12-26T11:49:27.509Z,4.20
2018-12-26T11:52:08.475Z,4.20
2018-12-26T11:54:49.527Z,4.20
2018-12-26T11:57:30.510Z,4.20
2018-12-26T12:00:11.859Z,4.20
2018-12-26T12:02:53.511Z,4.10
2018-12-26T12:05:34.670Z,4.10
2018-12-26T12:08:15.625Z,4.10
2018-12-26T12:10:56.795Z,4.20
2018-12-26T12:13:37.373Z,4.20
2018-12-26T12:16:18.237Z,4.20
2018-12-26T12:18:58.849Z,4.20
2018-12-26T12:21:39.963Z,4.10
2018-12-26T12:24:20.626Z,4.20
2018-12-26T12:27:01.825Z,4.20
2018-12-26T12:29:42.269Z,4.30
2018-12-26T12:32:23.545Z,4.20
2018-12-26T12:35:04.336Z,4.30
2018-12-26T12:37:45.023Z,4.30
2018-12-26T12:40:25.799Z,4.30
2018-12-26T12:45:54.644Z,4.30
2018-12-26T12:48:35.042Z,4.30
2018-12-26T12:51:16.099Z,4.30
2018-12-26T12:53:57.000Z,4.30
2018-12-26T12:56:37.685Z,4.30
2018-12-26T12:59:18.447Z,4.30
2018-12-26T13:01:59.381Z,4.30
2018-12-26T13:04:40.272Z,4.30
2018-12-26T13:07:21.143Z,4.30
2018-12-26T13:10:01.752Z,4.40
2018-12-26T13:12:42.970Z,4.40
2018-12-26T13:15:24.260Z,4.40
2018-12-26T13:18:04.693Z,4.30
2018-12-26T13:20:45.515Z,4.40
2018-12-26T13:23:26.155Z,4.40
2018-12-26T13:26:07.365Z,4.30
2018-12-26T13:28:48.012Z,4.30
2018-12-26T13:31:29.074Z,4.40
2018-12-26T13:34:10.010Z,4.40
2018-12-26T13:36:50.692Z,4.50
2018-12-26T13:39:31.540Z,4.50
2018-12-26T13:42:12.338Z,4.50
2018-12-26T13:44:53.117Z,4.50
2018-12-26T13:47:33.728Z,4.50
2018-12-26T13:50:14.891Z,4.60
2018-12-26T13:52:55.198Z,4.70
2018-12-26T13:55:35.943Z,4.60
2018-12-26T13:58:17.047Z,4.70
2018-12-26T14:00:58.099Z,4.60
2018-12-26T14:03:39.055Z,4.60
2018-12-26T14:06:20.590Z,4.70
2018-12-26T14:09:01.176Z,4.70
2018-12-26T14:11:42.167Z,4.70
2018-12-26T14:14:22.892Z,4.90
2018-12-26T14:17:04.024Z,4.90
2018-12-26T14:19:45.668Z,4.90
2018-12-26T14:22:25.911Z,5.00
2018-12-26T14:25:06.601Z,4.90
2018-12-26T14:27:47.555Z,4.80
2018-12-26T14:30:28.368Z,4.90
2018-12-26T14:33:09.207Z,4.90
2018-12-26T14:35:50.437Z,5.00
2018-12-26T14:38:31.482Z,5.10
2018-12-26T14:41:12.402Z,5.20
2018-12-26T14:43:52.957Z,5.30
2018-12-26T14:46:33.574Z,5.30
2018-12-26T14:49:14.681Z,5.20
2018-12-26T14:51:55.633Z,5.30
2018-12-26T14:54:35.932Z,5.40
2018-12-26T14:57:16.719Z,5.40
2018-12-26T14:59:57.590Z,5.40
2018-12-26T15:02:38.613Z,5.50
2018-12-26T15:05:19.872Z,5.50
2018-12-26T15:08:00.534Z,5.50
2018-12-26T15:10:41.592Z,5.50
2018-12-26T15:13:22.086Z,5.40
2018-12-26T15:16:04.689Z,5.30
2018-12-26T15:18:45.286Z,5.20
2018-12-26T15:21:26.369Z,5.10
2018-12-26T15:24:07.483Z,5.10
2018-12-26T15:26:48.137Z,5.10
2018-12-26T15:29:28.621Z,5.10
2018-12-26T15:32:09.432Z,5.10
2018-12-26T15:34:50.210Z,5.00
2018-12-26T15:37:31.039Z,5.00
2018-12-26T15:40:11.595Z,5.00
2018-12-26T15:43:14.763Z,5.00
2018-12-26T15:45:55.125Z,4.90
2018-12-26T15:48:35.913Z,4.90
2018-12-26T15:51:16.407Z,5.00
2018-12-26T15:53:57.384Z,5.00
2018-12-26T15:56:38.313Z,5.00
2018-12-26T15:59:19.409Z,5.10
2018-12-26T16:02:00.044Z,5.30
2018-12-26T16:04:40.526Z,5.20
2018-12-26T16:07:21.236Z,5.20
2018-12-26T16:10:01.766Z,5.30
2018-12-26T16:12:42.220Z,5.40
2018-12-26T16:15:23.625Z,5.40
2018-12-26T16:18:04.140Z,5.50
2018-12-26T16:20:45.123Z,5.60
2018-12-26T16:23:26.301Z,5.60
2018-12-26T16:26:07.266Z,5.60
2018-12-26T16:28:48.209Z,5.70
2018-12-26T16:31:29.062Z,5.70
2018-12-26T16:34:09.699Z,5.70
2018-12-26T16:36:50.146Z,5.70
2018-12-26T16:39:35.685Z,5.60
2018-12-26T16:42:12.838Z,5.50
2018-12-26T16:44:53.777Z,5.50
2018-12-26T16:47:34.942Z,5.50
2018-12-26T16:50:16.279Z,5.40
2018-12-26T16:52:57.139Z,5.40
2018-12-26T16:55:37.875Z,5.40
2018-12-26T16:58:06.305Z,5.40
2018-12-26T17:00:55.188Z,5.40
2018-12-26T17:03:36.934Z,5.40
2018-12-26T17:06:17.756Z,5.40
2018-12-26T17:08:59.152Z,5.40
2018-12-26T17:11:40.521Z,5.40
2018-12-26T17:14:21.067Z,5.50
2018-12-26T17:17:01.933Z,5.50
2018-12-26T17:19:42.839Z,5.50
2018-12-26T17:22:23.979Z,5.60
2018-12-26T17:25:04.968Z,5.60
2018-12-26T17:27:45.739Z,5.60
2018-12-26T17:30:26.383Z,5.70
2018-12-26T17:33:07.454Z,5.70
2018-12-26T17:35:48.295Z,5.80
2018-12-26T17:38:28.821Z,5.80
2018-12-26T17:41:09.529Z,5.80
2018-12-26T17:43:50.784Z,5.80
2018-12-26T17:46:31.544Z,5.90
2018-12-26T17:49:12.141Z,5.90
2018-12-26T17:51:52.932Z,6.00
2018-12-26T17:54:33.683Z,6.00
2018-12-26T17:57:14.177Z,5.90
2018-12-26T17:59:55.566Z,5.90
2018-12-26T18:02:36.419Z,5.90
2018-12-26T18:05:16.890Z,5.80
2018-12-26T18:07:58.070Z,5.70
2018-12-26T18:10:39.099Z,5.70
2018-12-26T18:13:19.559Z,5.80
2018-12-26T18:16:00.625Z,5.70
2018-12-26T18:18:41.610Z,5.60
2018-12-26T18:21:22.238Z,5.60
2018-12-26T18:24:02.840Z,5.60
2018-12-26T18:26:43.802Z,5.60
2018-12-26T18:29:24.334Z,5.60
2018-12-26T18:32:04.973Z,5.70
2018-12-26T18:34:46.028Z,5.70
2018-12-26T18:37:27.018Z,5.70
2018-12-26T18:40:07.636Z,5.60
2018-12-26T18:42:48.572Z,5.60
2018-12-26T18:45:29.570Z,5.60
2018-12-26T18:48:10.325Z,5.60
2018-12-26T18:50:50.634Z,5.60
2018-12-26T18:53:31.543Z,5.50
2018-12-26T18:56:12.315Z,5.60
2018-12-26T18:58:53.151Z,5.50
2018-12-26T19:01:34.395Z,5.40
2018-12-26T19:04:14.586Z,5.40
2018-12-26T19:06:55.018Z,5.40
2018-12-26T19:09:36.061Z,5.40
2018-12-26T19:12:16.938Z,5.40
2018-12-26T19:14:57.607Z,5.40
2018-12-26T19:17:38.439Z,5.40
2018-12-26T19:20:19.036Z,5.40
2018-12-26T19:22:59.635Z,5.30
2018-12-26T19:25:40.660Z,5.40
2018-12-26T19:28:21.416Z,5.40
2018-12-26T19:31:02.186Z,5.30
2018-12-26T19:33:42.672Z,5.30
2018-12-26T19:36:23.460Z,5.30
2018-12-26T19:39:04.947Z,5.20
2018-12-26T19:41:45.779Z,5.20
2018-12-26T19:44:26.637Z,5.20
2018-12-26T19:47:06.763Z,5.20
2018-12-26T19:49:47.721Z,5.20
2018-12-26T19:52:28.652Z,5.20
2018-12-26T19:55:09.335Z,5.30
2018-12-26T19:57:50.124Z,5.30
2018-12-26T20:00:31.123Z,5.20
2018-12-26T20:03:11.877Z,5.20
2018-12-26T20:05:52.861Z,5.20
2018-12-26T20:08:33.639Z,5.20
2018-12-26T20:11:14.383Z,5.10
2018-12-26T20:13:55.385Z,5.00
2018-12-26T20:16:36.223Z,5.00
2018-12-26T20:19:17.043Z,5.00
2018-12-26T20:21:57.519Z,5.00
2018-12-26T20:24:38.433Z,5.10
2018-12-26T20:27:19.132Z,5.00
2018-12-26T20:30:00.240Z,5.10
2018-12-26T20:32:41.345Z,5.10
2018-12-26T20:35:21.980Z,5.00
2018-12-26T20:38:02.639Z,5.00
2018-12-26T20:40:43.234Z,5.00
2018-12-26T20:43:23.979Z,5.00
2018-12-26T20:46:04.854Z,5.00
2018-12-26T20:48:45.770Z,5.00
2018-12-26T20:51:26.351Z,5.00
2018-12-26T20:54:07.089Z,4.90
2018-12-26T20:56:48.482Z,4.90
2018-12-26T20:59:29.201Z,4.90
2018-12-26T21:02:09.707Z,4.80
2018-12-26T21:04:50.900Z,4.80
2018-12-26T21:07:31.416Z,4.80
2018-12-26T21:10:12.197Z,4.80
2018-12-26T21:12:53.083Z,4.90
2018-12-26T21:15:33.740Z,4.90
2018-12-26T21:18:14.653Z,4.90
2018-12-26T21:20:55.380Z,4.80
2018-12-26T21:23:36.420Z,4.90
2018-12-26T21:26:17.548Z,4.90
2018-12-26T21:28:57.746Z,5.00
2018-12-26T21:31:38.563Z,5.10
2018-12-26T21:34:19.719Z,5.20
2018-12-26T21:37:00.538Z,5.10
2018-12-26T21:39:41.150Z,5.00
2018-12-26T21:42:22.002Z,4.90
2018-12-26T21:45:02.907Z,5.00
2018-12-26T21:47:43.667Z,5.00
2018-12-26T21:50:24.428Z,5.10
2018-12-26T21:53:04.833Z,5.00
2018-12-26T21:55:45.863Z,5.10
2018-12-26T21:58:26.287Z,5.10
2018-12-26T22:01:07.047Z,5.20
2018-12-26T22:03:48.051Z,5.20
2018-12-26T22:06:29.098Z,5.20
2018-12-26T22:09:10.437Z,5.20
2018-12-26T22:11:51.341Z,5.10
2018-12-26T22:14:31.912Z,5.10
2018-12-26T22:17:12.791Z,5.10
2018-12-26T22:19:53.539Z,5.10
2018-12-26T22:22:34.395Z,5.00
2018-12-26T22:25:15.416Z,5.00
2018-12-26T22:27:55.959Z,5.00
2018-12-26T22:30:36.632Z,5.00
2018-12-26T22:33:17.549Z,5.00
2018-12-26T22:35:58.135Z,4.90
2018-12-26T22:38:38.946Z,4.90
2018-12-26T22:44:08.688Z,5.00
2018-12-26T22:46:49.486Z,5.00
2018-12-26T22:49:30.038Z,5.10
2018-12-26T22:52:10.662Z,5.10
2018-12-26T22:54:51.260Z,5.20
2018-12-26T22:57:32.302Z,5.20
2018-12-26T23:00:14.799Z,5.20
2018-12-26T23:02:56.033Z,5.20
2018-12-26T23:05:37.447Z,5.20
2018-12-26T23:08:18.578Z,5.30
2018-12-26T23:10:59.426Z,5.20
2018-12-26T23:13:40.142Z,5.20
2018-12-26T23:16:21.198Z,5.10
2018-12-26T23:22:07.256Z,5.10
2018-12-26T23:24:47.550Z,5.10
2018-12-26T23:27:28.132Z,5.10
2018-12-26T23:30:09.407Z,5.20
2018-12-26T23:32:50.287Z,5.10
2018-12-26T23:35:31.103Z,5.10
2018-12-26T23:41:30.305Z,4.90
2018-12-26T23:44:10.894Z,4.90
2018-12-26T23:46:51.916Z,4.90
2018-12-26T23:49:32.753Z,4.80
2018-12-26T23:52:12.988Z,4.80
2018-12-26T23:54:55.678Z,4.90
2018-12-26T23:57:36.565Z,4.80
